THY8LN LTFH-LTFM
Flight info
| Callsign | THY8LN |
|---|---|
| Flight time | 1h 10m |
| Altitude | 32000 |
| Route | BAFRA UW86 SIN UW90 INB UL746 ADUMU DCT NUGBA |
| Aircraft | A320/M-SDE3FGHIRWY/LB1 |
Departure
| Time | 2026-04-30 21:37 |
|---|---|
| Airport | Samsun-Çarşamba Airport (LTFH) |
Arrival
| Time | 2026-04-30 22:47 |
|---|---|
| Airport | İstanbul Airport (LTFM) |
| Time | Latitude | Longitude | Altitude | Speed | Heading |
|---|---|---|---|---|---|
| 2026-04-30 21:12 | 41.25816 | 36.55587 | 25 ft | 0 kts | 224° |
| 2026-04-30 21:29 | 41.25827 | 36.55602 | 27 ft | 4 kts | 227° |
| 2026-04-30 21:30 | 41.25851 | 36.55662 | 29 ft | 4 kts | 292° |
| 2026-04-30 21:31 | 41.25847 | 36.55672 | 28 ft | 0 kts | 313° |
| 2026-04-30 21:33 | 41.25848 | 36.55671 | 29 ft | 1 kts | 313° |
| 2026-04-30 21:34 | 41.25859 | 36.55656 | 27 ft | 3 kts | 314° |
| 2026-04-30 21:34 | 41.25938 | 36.55548 | 28 ft | 11 kts | 313° |
| 2026-04-30 21:34 | 41.25997 | 36.55464 | 26 ft | 14 kts | 313° |
| 2026-04-30 21:35 | 41.26068 | 36.55362 | 28 ft | 16 kts | 312° |
| 2026-04-30 21:35 | 41.26151 | 36.55244 | 26 ft | 15 kts | 316° |
| 2026-04-30 21:35 | 41.26244 | 36.55262 | 28 ft | 17 kts | 43° |
| 2026-04-30 21:35 | 41.26325 | 36.55368 | 30 ft | 12 kts | 44° |
| 2026-04-30 21:36 | 41.26347 | 36.55448 | 27 ft | 8 kts | 105° |
| 2026-04-30 21:36 | 41.26283 | 36.55545 | 26 ft | 32 kts | 134° |
| 2026-04-30 21:37 | 41.24567 | 36.57948 | 312 ft | 167 kts | 133° |
| 2026-04-30 21:37 | 41.23778 | 36.59064 | 1025 ft | 166 kts | 133° |
| 2026-04-30 21:37 | 41.22965 | 36.60201 | 1608 ft | 171 kts | 133° |
| 2026-04-30 21:37 | 41.22140 | 36.61348 | 2256 ft | 171 kts | 133° |
| 2026-04-30 21:38 | 41.21320 | 36.62485 | 2914 ft | 170 kts | 133° |
| 2026-04-30 21:38 | 41.20493 | 36.63631 | 3435 ft | 179 kts | 133° |
| 2026-04-30 21:38 | 41.19579 | 36.64901 | 3702 ft | 201 kts | 133° |
| 2026-04-30 21:38 | 41.18738 | 36.66405 | 3969 ft | 225 kts | 110° |
| 2026-04-30 21:39 | 41.18694 | 36.68546 | 4363 ft | 251 kts | 72° |
| 2026-04-30 21:39 | 41.19663 | 36.70568 | 5002 ft | 267 kts | 50° |
| 2026-04-30 21:39 | 41.20960 | 36.72322 | 5782 ft | 275 kts | 44° |
| 2026-04-30 21:39 | 41.22408 | 36.74043 | 6588 ft | 282 kts | 40° |
| 2026-04-30 21:40 | 41.24070 | 36.75361 | 7317 ft | 288 kts | 17° |
| 2026-04-30 21:40 | 41.26052 | 36.75720 | 8107 ft | 290 kts | 353° |
| 2026-04-30 21:40 | 41.27990 | 36.75052 | 8908 ft | 288 kts | 329° |
| 2026-04-30 21:40 | 41.29554 | 36.73448 | 9748 ft | 283 kts | 306° |
| 2026-04-30 21:41 | 41.30535 | 36.71220 | 10508 ft | 282 kts | 288° |
| 2026-04-30 21:41 | 41.31239 | 36.68763 | 10740 ft | 304 kts | 287° |
| 2026-04-30 21:41 | 41.31976 | 36.66067 | 11020 ft | 323 kts | 287° |
| 2026-04-30 21:41 | 41.32743 | 36.63230 | 11626 ft | 329 kts | 287° |
| 2026-04-30 21:42 | 41.33524 | 36.60350 | 12326 ft | 333 kts | 287° |
| 2026-04-30 21:42 | 41.34320 | 36.57440 | 13023 ft | 336 kts | 287° |
| 2026-04-30 21:42 | 41.35126 | 36.54507 | 13726 ft | 339 kts | 287° |
| 2026-04-30 21:42 | 41.35942 | 36.51539 | 14366 ft | 343 kts | 287° |
| 2026-04-30 21:43 | 41.36751 | 36.48592 | 14968 ft | 345 kts | 287° |
| 2026-04-30 21:43 | 41.37577 | 36.45574 | 15582 ft | 348 kts | 287° |
| 2026-04-30 21:43 | 41.38410 | 36.42534 | 16186 ft | 351 kts | 287° |
| 2026-04-30 21:43 | 41.39251 | 36.39468 | 16782 ft | 354 kts | 287° |
| 2026-04-30 21:44 | 41.40097 | 36.36376 | 17380 ft | 357 kts | 286° |
| 2026-04-30 21:44 | 41.40948 | 36.33254 | 17988 ft | 360 kts | 286° |
| 2026-04-30 21:44 | 41.41807 | 36.30110 | 18569 ft | 362 kts | 286° |
| 2026-04-30 21:44 | 41.42670 | 36.26952 | 19090 ft | 364 kts | 286° |
| 2026-04-30 21:45 | 41.43525 | 36.23809 | 19632 ft | 367 kts | 286° |
| 2026-04-30 21:45 | 41.44395 | 36.20599 | 20194 ft | 369 kts | 286° |
| 2026-04-30 21:45 | 41.45267 | 36.17375 | 20734 ft | 371 kts | 286° |
| 2026-04-30 21:45 | 41.46145 | 36.14133 | 21262 ft | 373 kts | 286° |
| 2026-04-30 21:46 | 41.47026 | 36.10872 | 21787 ft | 375 kts | 286° |
| 2026-04-30 21:46 | 41.47913 | 36.07590 | 22281 ft | 378 kts | 287° |
| 2026-04-30 21:46 | 41.48774 | 36.04397 | 22745 ft | 380 kts | 286° |
| 2026-04-30 21:46 | 41.49662 | 36.01068 | 23235 ft | 382 kts | 285° |
| 2026-04-30 21:47 | 41.50149 | 35.97611 | 23690 ft | 380 kts | 269° |
| 2026-04-30 21:47 | 41.50036 | 35.94090 | 24087 ft | 381 kts | 265° |
| 2026-04-30 21:47 | 41.49857 | 35.90558 | 24503 ft | 383 kts | 264° |
| 2026-04-30 21:47 | 41.49662 | 35.87009 | 24915 ft | 385 kts | 264° |
| 2026-04-30 21:48 | 41.49456 | 35.83445 | 25323 ft | 386 kts | 264° |
| 2026-04-30 21:48 | 41.49245 | 35.79858 | 25733 ft | 388 kts | 264° |
| 2026-04-30 21:48 | 41.49035 | 35.76256 | 26119 ft | 390 kts | 264° |
| 2026-04-30 21:48 | 41.48827 | 35.72638 | 26514 ft | 392 kts | 264° |
| 2026-04-30 21:49 | 41.48622 | 35.69006 | 26895 ft | 394 kts | 264° |
| 2026-04-30 21:49 | 41.48418 | 35.65352 | 27284 ft | 396 kts | 265° |
| 2026-04-30 21:49 | 41.48217 | 35.61733 | 27663 ft | 398 kts | 265° |
| 2026-04-30 21:49 | 41.48011 | 35.58050 | 28059 ft | 400 kts | 265° |
| 2026-04-30 21:50 | 41.47798 | 35.54337 | 28442 ft | 402 kts | 265° |
| 2026-04-30 21:50 | 41.47583 | 35.50612 | 28821 ft | 404 kts | 265° |
| 2026-04-30 21:50 | 41.47363 | 35.46871 | 29195 ft | 406 kts | 265° |
| 2026-04-30 21:50 | 41.47140 | 35.43118 | 29546 ft | 408 kts | 265° |
| 2026-04-30 21:51 | 41.46916 | 35.39342 | 29913 ft | 410 kts | 265° |
| 2026-04-30 21:51 | 41.46692 | 35.35556 | 30384 ft | 408 kts | 265° |
| 2026-04-30 21:51 | 41.46469 | 35.31793 | 30862 ft | 406 kts | 265° |
| 2026-04-30 21:51 | 41.46244 | 35.28039 | 31340 ft | 404 kts | 264° |
| 2026-04-30 21:52 | 41.46017 | 35.24315 | 31821 ft | 403 kts | 264° |
| 2026-04-30 21:52 | 41.45789 | 35.20591 | 32007 ft | 402 kts | 264° |
| 2026-04-30 21:52 | 41.45339 | 35.13217 | 32038 ft | 397 kts | 264° |
| 2026-04-30 21:53 | 41.44885 | 35.05788 | 32038 ft | 406 kts | 264° |
| 2026-04-30 21:53 | 41.44413 | 34.98266 | 32037 ft | 408 kts | 264° |
| 2026-04-30 21:54 | 41.43939 | 34.90785 | 32037 ft | 408 kts | 264° |
| 2026-04-30 21:54 | 41.43462 | 34.83312 | 32034 ft | 408 kts | 264° |
| 2026-04-30 21:55 | 41.42984 | 34.75838 | 32022 ft | 408 kts | 264° |
| 2026-04-30 21:55 | 41.42496 | 34.68349 | 32020 ft | 408 kts | 264° |
| 2026-04-30 21:56 | 41.41999 | 34.60814 | 32020 ft | 408 kts | 264° |
| 2026-04-30 21:56 | 41.41502 | 34.53279 | 32021 ft | 408 kts | 264° |
| 2026-04-30 21:57 | 41.41001 | 34.45747 | 32021 ft | 408 kts | 264° |
| 2026-04-30 21:57 | 41.40488 | 34.38221 | 32024 ft | 408 kts | 264° |
| 2026-04-30 21:58 | 41.39971 | 34.30689 | 32015 ft | 408 kts | 264° |
| 2026-04-30 21:58 | 41.39461 | 34.23211 | 32021 ft | 408 kts | 264° |
| 2026-04-30 21:59 | 41.38939 | 34.15650 | 32025 ft | 408 kts | 264° |
| 2026-04-30 22:00 | 41.38141 | 34.04425 | 32026 ft | 407 kts | 264° |
| 2026-04-30 22:00 | 41.37330 | 33.93159 | 32031 ft | 407 kts | 264° |
| 2026-04-30 22:01 | 41.36795 | 33.85653 | 32029 ft | 407 kts | 264° |
| 2026-04-30 22:01 | 41.36250 | 33.78162 | 32032 ft | 406 kts | 263° |
| 2026-04-30 22:02 | 41.35696 | 33.70673 | 32038 ft | 406 kts | 264° |
| 2026-04-30 22:02 | 41.35141 | 33.63188 | 32040 ft | 406 kts | 264° |
| 2026-04-30 22:03 | 41.34586 | 33.55765 | 32035 ft | 406 kts | 263° |
| 2026-04-30 22:03 | 41.34021 | 33.48297 | 32035 ft | 406 kts | 263° |
| 2026-04-30 22:04 | 41.33451 | 33.40833 | 32027 ft | 405 kts | 263° |
| 2026-04-30 22:05 | 41.32592 | 33.29653 | 32029 ft | 405 kts | 263° |
| 2026-04-30 22:05 | 41.32010 | 33.22209 | 32023 ft | 404 kts | 263° |
| 2026-04-30 22:06 | 41.31523 | 33.16020 | 32027 ft | 404 kts | 263° |
| 2026-04-30 22:06 | 41.30638 | 33.04863 | 32025 ft | 404 kts | 263° |
| 2026-04-30 22:07 | 41.30045 | 32.97427 | 32027 ft | 404 kts | 263° |
| 2026-04-30 22:07 | 41.29439 | 32.89982 | 32029 ft | 404 kts | 263° |
| 2026-04-30 22:08 | 41.28832 | 32.82598 | 32030 ft | 404 kts | 263° |
| 2026-04-30 22:08 | 41.28221 | 32.75180 | 32029 ft | 404 kts | 263° |
| 2026-04-30 22:09 | 41.27613 | 32.67750 | 32029 ft | 404 kts | 263° |
| 2026-04-30 22:09 | 41.26997 | 32.60329 | 32032 ft | 404 kts | 263° |
| 2026-04-30 22:10 | 41.26370 | 32.52906 | 32026 ft | 403 kts | 263° |
| 2026-04-30 22:10 | 41.25743 | 32.45496 | 32040 ft | 404 kts | 263° |
| 2026-04-30 22:11 | 41.24803 | 32.34430 | 32040 ft | 404 kts | 263° |
| 2026-04-30 22:12 | 41.24169 | 32.27098 | 32042 ft | 404 kts | 263° |
| 2026-04-30 22:12 | 41.23517 | 32.19682 | 32038 ft | 404 kts | 263° |
| 2026-04-30 22:13 | 41.22870 | 32.12302 | 32041 ft | 404 kts | 263° |
| 2026-04-30 22:13 | 41.22222 | 32.04934 | 32050 ft | 404 kts | 263° |
| 2026-04-30 22:14 | 41.21569 | 31.97517 | 32058 ft | 404 kts | 263° |
| 2026-04-30 22:14 | 41.20899 | 31.90102 | 32062 ft | 404 kts | 262° |
| 2026-04-30 22:15 | 41.20229 | 31.82692 | 32067 ft | 404 kts | 263° |
| 2026-04-30 22:15 | 41.19566 | 31.75354 | 32073 ft | 404 kts | 263° |
| 2026-04-30 22:16 | 41.18888 | 31.67953 | 32079 ft | 404 kts | 263° |
| 2026-04-30 22:17 | 41.17527 | 31.53299 | 32080 ft | 404 kts | 262° |
| 2026-04-30 22:17 | 41.16494 | 31.42208 | 32081 ft | 404 kts | 262° |
| 2026-04-30 22:18 | 41.15441 | 31.31111 | 32085 ft | 404 kts | 262° |
| 2026-04-30 22:19 | 41.14373 | 31.20012 | 32085 ft | 404 kts | 262° |
| 2026-04-30 22:20 | 41.13304 | 31.08972 | 32095 ft | 404 kts | 262° |
| 2026-04-30 22:20 | 41.12229 | 30.97887 | 32102 ft | 404 kts | 262° |
| 2026-04-30 22:21 | 41.11866 | 30.94189 | 31946 ft | 404 kts | 262° |
| 2026-04-30 22:21 | 41.11503 | 30.90539 | 31568 ft | 396 kts | 262° |
| 2026-04-30 22:21 | 41.11144 | 30.86942 | 31067 ft | 391 kts | 262° |
| 2026-04-30 22:21 | 41.10789 | 30.83385 | 30560 ft | 387 kts | 262° |
| 2026-04-30 22:22 | 41.10437 | 30.79860 | 30023 ft | 384 kts | 262° |
| 2026-04-30 22:22 | 41.10088 | 30.76363 | 29407 ft | 381 kts | 262° |
| 2026-04-30 22:22 | 41.09746 | 30.72898 | 28818 ft | 377 kts | 262° |
| 2026-04-30 22:22 | 41.09411 | 30.69512 | 28239 ft | 374 kts | 262° |
| 2026-04-30 22:23 | 41.09068 | 30.66102 | 27669 ft | 371 kts | 262° |
| 2026-04-30 22:23 | 41.08727 | 30.62720 | 27111 ft | 369 kts | 262° |
| 2026-04-30 22:23 | 41.08387 | 30.59367 | 26553 ft | 366 kts | 262° |
| 2026-04-30 22:23 | 41.08044 | 30.56037 | 26017 ft | 364 kts | 262° |
| 2026-04-30 22:24 | 41.07705 | 30.52725 | 25504 ft | 361 kts | 262° |
| 2026-04-30 22:24 | 41.07368 | 30.49435 | 24990 ft | 359 kts | 262° |
| 2026-04-30 22:24 | 41.07031 | 30.46167 | 24501 ft | 357 kts | 262° |
| 2026-04-30 22:24 | 41.06694 | 30.42910 | 24032 ft | 355 kts | 262° |
| 2026-04-30 22:25 | 41.06361 | 30.39677 | 23552 ft | 353 kts | 262° |
| 2026-04-30 22:25 | 41.06030 | 30.36460 | 23031 ft | 351 kts | 261° |
| 2026-04-30 22:25 | 41.05699 | 30.33269 | 22522 ft | 349 kts | 261° |
| 2026-04-30 22:25 | 41.05369 | 30.30100 | 22010 ft | 346 kts | 261° |
| 2026-04-30 22:26 | 41.04708 | 30.23825 | 21008 ft | 341 kts | 261° |
| 2026-04-30 22:26 | 41.04384 | 30.20725 | 20512 ft | 339 kts | 261° |
| 2026-04-30 22:26 | 41.04063 | 30.17638 | 20026 ft | 337 kts | 261° |
| 2026-04-30 22:27 | 41.03742 | 30.14576 | 19532 ft | 335 kts | 261° |
| 2026-04-30 22:27 | 41.03422 | 30.11531 | 19032 ft | 333 kts | 261° |
| 2026-04-30 22:27 | 41.02781 | 30.05522 | 18042 ft | 329 kts | 261° |
| 2026-04-30 22:28 | 41.02138 | 29.99564 | 17000 ft | 325 kts | 260° |
| 2026-04-30 22:28 | 41.01818 | 29.96608 | 16494 ft | 323 kts | 260° |
| 2026-04-30 22:29 | 41.00880 | 29.87829 | 14985 ft | 319 kts | 260° |
| 2026-04-30 22:30 | 40.99730 | 29.77519 | 13722 ft | 317 kts | 261° |
| 2026-04-30 22:31 | 40.98820 | 29.68891 | 12921 ft | 314 kts | 261° |
| 2026-04-30 22:32 | 40.97886 | 29.60359 | 12144 ft | 311 kts | 261° |
| 2026-04-30 22:32 | 40.97264 | 29.54751 | 11637 ft | 309 kts | 261° |
| 2026-04-30 22:33 | 40.96320 | 29.46371 | 10891 ft | 306 kts | 261° |
| 2026-04-30 22:33 | 40.95694 | 29.40831 | 10405 ft | 304 kts | 261° |
| 2026-04-30 22:34 | 40.94787 | 29.32730 | 9783 ft | 284 kts | 261° |
| 2026-04-30 22:35 | 40.94222 | 29.27732 | 9519 ft | 269 kts | 261° |
| 2026-04-30 22:36 | 40.93092 | 29.17895 | 8201 ft | 273 kts | 261° |
| 2026-04-30 22:36 | 40.92807 | 29.15413 | 7876 ft | 271 kts | 261° |
| 2026-04-30 22:37 | 40.91964 | 29.08083 | 6989 ft | 265 kts | 262° |
| 2026-04-30 22:37 | 40.91687 | 29.05708 | 6862 ft | 257 kts | 262° |
| 2026-04-30 22:37 | 40.91189 | 29.01189 | 6618 ft | 241 kts | 268° |
| 2026-04-30 22:38 | 40.91497 | 28.96922 | 6185 ft | 232 kts | 277° |
| 2026-04-30 22:38 | 40.91867 | 28.92687 | 5544 ft | 233 kts | 277° |
| 2026-04-30 22:39 | 40.92053 | 28.90555 | 5208 ft | 234 kts | 277° |
| 2026-04-30 22:39 | 40.92617 | 28.84112 | 4214 ft | 236 kts | 278° |
| 2026-04-30 22:40 | 40.94497 | 28.78463 | 3982 ft | 231 kts | 326° |
| 2026-04-30 22:41 | 40.98728 | 28.76186 | 3983 ft | 211 kts | 1° |
| 2026-04-30 22:41 | 41.01640 | 28.76134 | 3983 ft | 211 kts | 1° |
| 2026-04-30 22:42 | 41.07282 | 28.76028 | 3970 ft | 198 kts | 0° |
| 2026-04-30 22:43 | 41.09901 | 28.75978 | 3547 ft | 183 kts | 1° |
| 2026-04-30 22:43 | 41.12435 | 28.75931 | 3089 ft | 181 kts | 1° |
| 2026-04-30 22:44 | 41.14953 | 28.75883 | 2598 ft | 181 kts | 2° |
| 2026-04-30 22:45 | 41.19471 | 28.75795 | 1717 ft | 141 kts | 3° |
| 2026-04-30 22:45 | 41.21370 | 28.75760 | 1335 ft | 133 kts | 3° |
| 2026-04-30 22:46 | 41.23187 | 28.75729 | 995 ft | 127 kts | 2° |
| 2026-04-30 22:47 | 41.26615 | 28.75658 | 337 ft | 116 kts | 2° |
| 2026-04-30 22:47 | 41.27575 | 28.75645 | 332 ft | 17 kts | 359° |
| 2026-04-30 22:48 | 41.27626 | 28.75420 | 334 ft | 16 kts | 266° |
| 2026-04-30 22:49 | 41.27267 | 28.75367 | 334 ft | 21 kts | 179° |
| 2026-04-30 22:49 | 41.26778 | 28.75379 | 332 ft | 25 kts | 179° |
| 2026-04-30 22:50 | 41.26246 | 28.75318 | 334 ft | 10 kts | 270° |
| 2026-04-30 22:51 | 41.26243 | 28.75099 | 334 ft | 14 kts | 269° |
| 2026-04-30 22:51 | 41.26144 | 28.74970 | 330 ft | 9 kts | 236° |
| 2026-04-30 22:52 | 41.26126 | 28.74897 | 332 ft | 3 kts | 250° |
| 2026-04-30 22:52 | 41.26123 | 28.74885 | 334 ft | 0 kts | 250° |